Time;durP1;ratioP1;P1;durP2;ratioP2;P2;SDS_P1;SDS_P2;PMS_P1;PMS_P2;Temp;Humidity;BMP_temperature;BMP_pressure;BME280_temperature;BME280_humidity;BME280_pressure;Samples;Min_cycle;Max_cycle;Signal;HPM_P1;HPM_P2
2022/03/27 00:02:11;;;;;;;8.52;4.55;;;12.80;73.10;;;;;;5053641;28;20049;-74
2022/03/27 00:04:37;;;;;;;7.47;4.47;;;12.70;73.30;;;;;;5036961;28;20032;-74
2022/03/27 00:07:03;;;;;;;10.55;4.40;;;12.70;73.50;;;;;;5036877;28;20531;-74
2022/03/27 00:09:29;;;;;;;10.57;4.38;;;12.60;73.70;;;;;;5054385;28;20086;-75
2022/03/27 00:11:54;;;;;;;7.70;4.22;;;12.60;73.90;;;;;;5053441;28;20037;-74
2022/03/27 00:14:21;;;;;;;10.48;4.75;;;12.60;74.10;;;;;;5036779;28;20021;-75
2022/03/27 00:16:46;;;;;;;7.45;4.13;;;12.60;74.20;;;;;;5036501;28;20466;-75
2022/03/27 00:19:12;;;;;;;7.85;4.38;;;12.60;74.40;;;;;;5053354;28;20040;-74
2022/03/27 00:21:40;;;;;;;6.45;4.25;;;12.60;74.60;;;;;;5036342;28;20037;-75
2022/03/27 00:24:06;;;;;;;9.07;5.13;;;12.60;74.70;;;;;;5053038;28;20111;-75
2022/03/27 00:26:31;;;;;;;6.60;4.22;;;12.60;74.80;;;;;;5036630;28;20060;-74
2022/03/27 00:28:57;;;;;;;7.68;4.75;;;12.60;74.90;;;;;;5052835;28;20021;-75
2022/03/27 00:31:23;;;;;;;8.85;5.05;;;12.70;75.10;;;;;;5052978;28;20033;-75
2022/03/27 00:33:48;;;;;;;7.47;4.45;;;12.60;75.20;;;;;;5052437;28;20021;-75
2022/03/27 00:36:15;;;;;;;8.70;4.55;;;12.60;75.30;;;;;;5054111;28;20240;-75
2022/03/27 00:38:44;;;;;;;6.32;3.95;;;12.60;75.40;;;;;;5052722;28;20040;-74
2022/03/27 00:41:12;;;;;;;7.25;4.30;;;12.60;75.40;;;;;;5052460;28;20458;-74
2022/03/27 00:43:39;;;;;;;8.13;4.97;;;12.60;76.10;;;;;;5036190;28;20116;-74
2022/03/27 00:46:06;;;;;;;7.28;4.43;;;12.70;75.60;;;;;;5052495;28;20477;-74
2022/03/27 00:48:34;;;;;;;8.20;4.90;;;12.60;75.60;;;;;;5036063;28;20392;-75
2022/03/27 00:51:00;;;;;;;6.88;4.38;;;12.70;75.70;;;;;;5052682;28;20029;-74
2022/03/27 00:53:26;;;;;;;8.20;5.80;;;12.70;75.70;;;;;;5053940;28;20116;-75
2022/03/27 00:55:52;;;;;;;8.38;5.45;;;12.60;75.60;;;;;;5052765;28;20116;-74
2022/03/27 00:58:18;;;;;;;9.23;5.63;;;12.50;75.60;;;;;;5052568;28;20029;-74
2022/03/27 01:00:50;;;;;;;8.60;4.95;;;12.60;76.00;;;;;;5053862;28;20049;-75
2022/03/27 01:03:22;;;;;;;6.53;4.18;;;12.50;76.00;;;;;;5052502;28;20440;-80
2022/03/27 01:05:48;;;;;;;7.03;4.95;;;12.50;76.00;;;;;;5052287;28;20115;-80
2022/03/27 01:08:15;;;;;;;8.63;4.95;;;12.40;76.00;;;;;;5035651;28;20039;-80
2022/03/27 01:10:42;;;;;;;7.35;5.05;;;12.40;76.10;;;;;;5052160;28;20028;-80
2022/03/27 01:13:12;;;;;;;8.27;5.60;;;12.30;76.30;;;;;;5053391;28;20025;-81
2022/03/27 01:15:45;;;;;;;8.80;5.85;;;12.20;76.50;;;;;;5053407;28;20504;-80
2022/03/27 01:18:12;;;;;;;10.43;5.47;;;12.20;76.70;;;;;;5053271;28;20392;-80
2022/03/27 01:20:40;;;;;;;9.23;6.10;;;12.20;76.80;;;;;;5053145;28;20108;-80
2022/03/27 01:23:11;;;;;;;7.72;5.60;;;12.30;77.50;;;;;;5052658;28;20048;-81
2022/03/27 01:25:38;;;;;;;9.90;6.65;;;12.20;76.90;;;;;;5059001;28;20033;-75
2022/03/27 01:28:05;;;;;;;8.90;6.50;;;12.30;76.90;;;;;;5052232;28;20036;-75
2022/03/27 01:30:30;;;;;;;9.45;6.38;;;12.30;76.90;;;;;;5052127;28;20032;-80
2022/03/27 01:32:57;;;;;;;10.40;7.00;;;12.30;76.90;;;;;;5051997;28;20104;-80
2022/03/27 01:35:23;;;;;;;12.07;7.47;;;12.40;77.00;;;;;;5053432;28;20037;-81
2022/03/27 01:37:49;;;;;;;10.35;7.32;;;12.40;77.00;;;;;;5054290;28;20109;-81
2022/03/27 01:40:17;;;;;;;10.38;7.55;;;12.30;77.00;;;;;;5051730;28;20055;-75
2022/03/27 01:42:43;;;;;;;10.30;7.68;;;12.30;77.00;;;;;;5034991;28;20051;-75
2022/03/27 01:45:09;;;;;;;10.32;7.13;;;12.30;77.10;;;;;;5054062;28;20465;-74
2022/03/27 01:47:38;;;;;;;10.55;8.07;;;12.30;77.10;;;;;;5056927;28;20028;-74
2022/03/27 01:50:06;;;;;;;11.60;7.05;;;12.30;77.20;;;;;;5039950;28;20025;-74
2022/03/27 01:52:32;;;;;;;11.50;7.78;;;12.30;77.20;;;;;;5056091;28;20066;-75
2022/03/27 01:54:58;;;;;;;11.98;7.70;;;12.30;77.20;;;;;;5057173;28;20048;-75
2022/03/27 01:57:24;;;;;;;11.38;7.82;;;12.30;77.80;;;;;;5055987;28;20029;-75
2022/03/27 01:59:50;;;;;;;11.85;7.80;;;12.30;77.30;;;;;;5039442;28;20060;-75
2022/03/27 02:02:23;;;;;;;13.45;8.38;;;12.30;77.30;;;;;;5057149;28;20025;-75
2022/03/27 02:04:52;;;;;;;12.35;8.13;;;12.30;77.40;;;;;;5055710;28;20032;-74
2022/03/27 02:07:22;;;;;;;10.02;7.10;;;12.30;77.40;;;;;;5057163;28;20029;-74
2022/03/27 02:09:48;;;;;;;11.23;7.90;;;12.20;77.50;;;;;;5055653;28;20017;-75
2022/03/27 02:12:13;;;;;;;10.57;7.82;;;12.20;77.60;;;;;;5055919;28;20025;-75
2022/03/27 02:14:39;;;;;;;11.60;7.70;;;12.20;77.80;;;;;;5038846;28;20025;-74
2022/03/27 02:17:05;;;;;;;10.80;7.60;;;12.20;77.80;;;;;;5055186;28;20033;-75
2022/03/27 02:19:31;;;;;;;11.30;7.55;;;12.20;77.90;;;;;;5055731;28;20025;-74
2022/03/27 02:21:56;;;;;;;10.38;7.43;;;12.10;77.80;;;;;;5055478;28;20029;-75
2022/03/27 02:24:22;;;;;;;11.50;7.80;;;12.10;77.90;;;;;;5038927;28;20018;-75
2022/03/27 02:26:50;;;;;;;10.13;7.53;;;12.10;77.90;;;;;;5055372;28;20102;-75
2022/03/27 02:29:16;;;;;;;10.02;6.40;;;12.20;78.00;;;;;;5055279;28;20119;-75
2022/03/27 02:31:44;;;;;;;11.93;6.97;;;12.20;78.00;;;;;;5056354;28;20064;-75
2022/03/27 02:34:09;;;;;;;11.70;6.50;;;12.20;77.90;;;;;;5055321;28;20017;-76
2022/03/27 02:36:35;;;;;;;10.73;6.22;;;12.10;77.80;;;;;;5055489;28;20028;-75
2022/03/27 02:39:01;;;;;;;10.93;6.45;;;12.10;77.70;;;;;;5056519;28;20029;-74
2022/03/27 02:41:27;;;;;;;9.23;6.32;;;12.10;77.70;;;;;;5073246;28;20120;-75
2022/03/27 02:43:52;;;;;;;8.43;5.85;;;12.10;77.70;;;;;;5058313;28;20131;-75
2022/03/27 02:46:18;;;;;;;10.82;6.20;;;12.10;77.60;;;;;;5058393;28;20039;-74
2022/03/27 02:48:44;;;;;;;10.65;7.15;;;12.20;77.60;;;;;;5041528;28;20036;-75
2022/03/27 02:51:09;;;;;;;11.90;7.20;;;12.10;77.50;;;;;;5058370;28;20440;-75
2022/03/27 02:53:35;;;;;;;9.65;6.28;;;12.00;77.60;;;;;;5058367;28;20044;-75
2022/03/27 02:56:04;;;;;;;10.00;7.10;;;11.90;77.80;;;;;;5041046;28;20036;-75
2022/03/27 02:58:30;;;;;;;11.98;6.85;;;11.80;77.90;;;;;;5075764;28;20028;-75
2022/03/27 03:00:56;;;;;;;10.68;7.10;;;11.70;78.10;;;;;;5058024;28;20031;-75
2022/03/27 03:03:22;;;;;;;11.57;7.63;;;11.70;78.30;;;;;;5058081;28;20025;-75
2022/03/27 03:05:48;;;;;;;10.07;7.10;;;11.70;78.40;;;;;;5057894;28;20032;-75
2022/03/27 03:08:17;;;;;;;11.90;6.80;;;11.60;78.60;;;;;;5058218;28;20040;-75
2022/03/27 03:10:44;;;;;;;11.65;7.78;;;11.60;78.60;;;;;;5076027;28;20067;-75
2022/03/27 03:13:10;;;;;;;11.38;7.32;;;11.60;78.60;;;;;;5040895;28;20125;-74
2022/03/27 03:15:41;;;;;;;11.82;7.40;;;11.50;78.70;;;;;;5057856;28;20035;-79
2022/03/27 03:18:10;;;;;;;13.07;8.00;;;11.50;78.80;;;;;;5057490;28;20090;-80
2022/03/27 03:20:38;;;;;;;12.95;7.68;;;11.50;78.90;;;;;;5057319;28;20024;-79
2022/03/27 03:23:04;;;;;;;11.23;7.53;;;11.50;78.80;;;;;;5075429;28;20036;-80
2022/03/27 03:25:30;;;;;;;11.82;7.50;;;11.50;78.80;;;;;;5075455;28;20044;-80
2022/03/27 03:27:56;;;;;;;11.93;7.87;;;11.50;78.90;;;;;;5075368;28;20027;-80
2022/03/27 03:30:22;;;;;;;12.25;7.43;;;11.40;79.00;;;;;;5057383;28;20028;-80
2022/03/27 03:32:49;;;;;;;11.67;7.47;;;11.40;79.20;;;;;;5075335;28;20020;-80
2022/03/27 03:35:15;;;;;;;12.85;7.82;;;11.30;79.30;;;;;;5075677;28;20036;-80
2022/03/27 03:37:40;;;;;;;11.80;7.68;;;11.40;79.40;;;;;;5040567;28;20029;-80
2022/03/27 03:40:07;;;;;;;13.93;8.40;;;11.40;79.50;;;;;;5074953;28;20048;-80
2022/03/27 03:42:34;;;;;;;12.18;8.48;;;11.30;79.40;;;;;;5075048;28;20033;-80
2022/03/27 03:44:59;;;;;;;14.23;7.97;;;11.30;79.40;;;;;;5075764;28;20427;-80
2022/03/27 03:47:25;;;;;;;14.50;8.52;;;11.30;79.40;;;;;;5059581;28;20047;-80
2022/03/27 03:49:51;;;;;;;14.48;8.80;;;11.30;79.50;;;;;;5057197;28;20037;-80
2022/03/27 03:52:17;;;;;;;17.55;8.98;;;11.20;79.40;;;;;;5040278;28;20098;-80
2022/03/27 03:54:42;;;;;;;15.40;8.87;;;11.40;79.40;;;;;;5058471;28;20029;-80
2022/03/27 03:57:08;;;;;;;16.77;10.23;;;11.40;79.20;;;;;;5063083;28;20028;-80
2022/03/27 03:59:36;;;;;;;18.25;10.40;;;11.50;79.20;;;;;;5074638;28;20108;-80
2022/03/27 04:02:03;;;;;;;18.27;10.13;;;11.40;79.00;;;;;;5075561;28;20031;-79
2022/03/27 04:04:30;;;;;;;16.60;10.00;;;11.40;78.90;;;;;;5040496;28;20524;-79
2022/03/27 04:06:56;;;;;;;18.67;10.82;;;11.40;78.70;;;;;;5056326;28;20078;-79
2022/03/27 04:09:21;;;;;;;19.85;11.50;;;11.40;78.70;;;;;;5072561;28;20032;-79
2022/03/27 04:11:48;;;;;;;19.53;11.17;;;11.40;78.70;;;;;;5057948;28;20028;-80
2022/03/27 04:14:14;;;;;;;22.23;11.17;;;11.50;78.60;;;;;;5057494;28;20170;-80
2022/03/27 04:16:39;;;;;;;19.55;11.50;;;11.40;78.50;;;;;;5069860;28;20052;-80
2022/03/27 04:19:05;;;;;;;18.80;10.30;;;11.40;78.60;;;;;;5061440;28;20052;-80
2022/03/27 04:21:31;;;;;;;21.67;12.30;;;11.30;78.40;;;;;;5094117;28;20028;-79
2022/03/27 04:23:57;;;;;;;18.80;10.90;;;11.40;78.40;;;;;;5078142;28;20035;-80
2022/03/27 04:26:23;;;;;;;20.38;11.00;;;11.40;78.40;;;;;;5081481;28;20464;-79
2022/03/27 04:28:49;;;;;;;20.48;11.05;;;11.40;78.40;;;;;;5076342;28;20436;-79
2022/03/27 04:31:14;;;;;;;21.00;11.93;;;11.40;78.30;;;;;;5075244;28;20278;-79
2022/03/27 04:33:40;;;;;;;19.67;12.30;;;11.40;78.20;;;;;;5085362;28;20038;-80
2022/03/27 04:36:06;;;;;;;21.07;12.10;;;11.40;78.20;;;;;;5048388;28;20115;-80
2022/03/27 04:38:32;;;;;;;24.90;13.45;;;11.30;78.20;;;;;;5061064;28;20480;-79
2022/03/27 04:40:57;;;;;;;22.52;12.02;;;11.40;78.20;;;;;;5059459;28;20067;-80
2022/03/27 04:43:23;;;;;;;21.35;11.48;;;11.30;78.20;;;;;;5094128;28;20464;-79
2022/03/27 04:45:49;;;;;;;21.98;12.10;;;11.30;78.20;;;;;;5094146;28;20027;-79
2022/03/27 04:48:15;;;;;;;21.02;12.10;;;11.30;78.00;;;;;;5094205;28;20078;-80
2022/03/27 04:50:41;;;;;;;20.23;11.10;;;11.30;78.20;;;;;;5061469;28;20549;-80
2022/03/27 04:53:07;;;;;;;20.60;12.05;;;11.20;78.20;;;;;;5093889;28;20065;-79
2022/03/27 04:55:32;;;;;;;23.88;13.10;;;11.30;78.30;;;;;;5059080;28;20511;-79
2022/03/27 04:57:58;;;;;;;23.90;13.33;;;11.20;78.80;;;;;;5075763;28;20563;-73
2022/03/27 05:00:24;;;;;;;21.77;12.88;;;11.10;78.00;;;;;;5093772;28;20085;-73
2022/03/27 05:02:49;;;;;;;21.50;13.15;;;11.10;78.10;;;;;;5094017;28;20028;-73
2022/03/27 05:05:15;;;;;;;21.60;12.13;;;11.10;78.30;;;;;;5075662;28;20059;-74
2022/03/27 05:07:42;;;;;;;22.73;12.27;;;11.10;78.40;;;;;;5059652;28;20388;-73
2022/03/27 05:10:09;;;;;;;23.83;12.83;;;11.10;78.30;;;;;;5059155;28;20380;-73
2022/03/27 05:12:36;;;;;;;23.17;12.93;;;11.00;78.40;;;;;;5042818;28;20031;-73
2022/03/27 05:15:02;;;;;;;23.23;13.05;;;11.10;78.50;;;;;;5075759;28;20016;-73
2022/03/27 05:17:28;;;;;;;22.20;12.47;;;11.00;78.40;;;;;;5058849;28;20028;-73
2022/03/27 05:19:53;;;;;;;23.17;13.27;;;11.00;78.30;;;;;;5058755;28;20035;-73
2022/03/27 05:22:19;;;;;;;19.73;11.40;;;11.00;78.30;;;;;;5059784;28;20135;-73
2022/03/27 05:24:46;;;;;;;21.73;11.47;;;10.90;78.10;;;;;;5093667;28;20020;-73
2022/03/27 05:27:12;;;;;;;19.93;11.37;;;10.90;78.20;;;;;;5058853;28;20409;-73
2022/03/27 05:29:38;;;;;;;17.57;9.87;;;10.90;78.10;;;;;;5059133;28;20024;-72
2022/03/27 05:32:04;;;;;;;18.40;10.48;;;10.90;77.90;;;;;;5093628;28;20524;-78
2022/03/27 05:34:30;;;;;;;17.73;10.40;;;10.90;77.70;;;;;;5058625;28;20488;-79
2022/03/27 05:36:56;;;;;;;18.10;10.73;;;10.80;77.60;;;;;;5058609;28;20031;-79
2022/03/27 05:39:21;;;;;;;20.20;10.50;;;10.70;77.50;;;;;;5075443;28;20024;-78
2022/03/27 05:41:47;;;;;;;17.70;9.47;;;10.60;77.50;;;;;;5093035;28;20451;-79
2022/03/27 05:44:13;;;;;;;15.17;9.37;;;10.50;77.70;;;;;;5075556;28;20060;-79
2022/03/27 05:46:39;;;;;;;14.63;8.97;;;10.40;77.70;;;;;;5093441;28;20087;-78
2022/03/27 05:49:05;;;;;;;18.30;9.67;;;10.30;77.80;;;;;;5075447;28;20077;-79
2022/03/27 05:51:30;;;;;;;15.20;9.30;;;10.20;77.90;;;;;;5093279;28;20028;-79
2022/03/27 05:53:56;;;;;;;16.00;9.73;;;10.20;78.00;;;;;;5093043;28;20071;-78
2022/03/27 05:56:21;;;;;;;17.00;9.77;;;10.10;78.00;;;;;;5076413;28;20433;-79
2022/03/27 05:58:47;;;;;;;14.90;9.40;;;10.00;78.00;;;;;;5093579;28;20038;-79
2022/03/27 06:01:14;;;;;;;14.73;8.83;;;10.00;77.90;;;;;;5093178;28;20060;-79
2022/03/27 06:03:40;;;;;;;17.90;9.63;;;9.90;77.80;;;;;;5092985;28;20021;-79
2022/03/27 06:06:06;;;;;;;16.33;9.23;;;9.90;77.90;;;;;;5074903;28;20032;-79
2022/03/27 06:08:32;;;;;;;15.07;9.23;;;9.80;77.90;;;;;;5058328;28;20028;-79
2022/03/27 06:10:57;;;;;;;19.57;10.00;;;9.90;78.60;;;;;;5092943;28;20032;-79
2022/03/27 06:13:23;;;;;;;17.57;9.90;;;9.80;78.10;;;;;;5074836;28;20040;-79
2022/03/27 06:15:50;;;;;;;19.17;10.03;;;9.70;78.00;;;;;;5074963;28;20436;-79
2022/03/27 06:18:15;;;;;;;17.07;9.30;;;9.80;78.20;;;;;;5092821;28;20024;-79
2022/03/27 06:20:41;;;;;;;18.70;10.10;;;9.70;78.20;;;;;;5074987;28;20111;-79
2022/03/27 06:23:07;;;;;;;16.83;9.63;;;9.70;78.30;;;;;;5074877;28;20073;-81
2022/03/27 06:25:34;;;;;;;19.50;10.90;;;9.70;78.40;;;;;;5093028;28;20024;-80
2022/03/27 06:28:00;;;;;;;17.80;9.97;;;9.70;78.50;;;;;;5058183;28;20028;-79
2022/03/27 06:30:28;;;;;;;16.77;10.13;;;9.60;78.50;;;;;;5092836;28;20039;-79
2022/03/27 06:32:54;;;;;;;21.07;10.60;;;9.60;78.70;;;;;;5096550;28;20024;-79
2022/03/27 06:35:22;;;;;;;21.53;11.20;;;9.60;78.80;;;;;;5078615;28;20035;-73
2022/03/27 06:37:49;;;;;;;22.83;11.57;;;9.60;78.90;;;;;;5078254;28;20039;-74
2022/03/27 06:40:15;;;;;;;19.13;9.57;;;9.60;78.80;;;;;;5078533;28;20121;-73
2022/03/27 06:42:43;;;;;;;18.50;10.63;;;9.70;78.80;;;;;;5078935;28;20030;-74
2022/03/27 06:45:13;;;;;;;19.77;11.13;;;9.70;78.60;;;;;;5078640;28;20104;-79
2022/03/27 06:47:40;;;;;;;19.70;10.93;;;9.70;78.50;;;;;;5096434;28;20357;-80
2022/03/27 06:50:06;;;;;;;19.67;10.63;;;9.70;78.60;;;;;;5078798;28;20040;-80
2022/03/27 06:52:34;;;;;;;20.97;11.00;;;9.60;78.70;;;;;;5078177;28;20039;-80
2022/03/27 06:54:59;;;;;;;20.47;11.07;;;9.70;78.90;;;;;;5096293;28;20024;-80
2022/03/27 06:57:25;;;;;;;21.07;11.10;;;9.60;78.90;;;;;;5096030;28;20385;-80
2022/03/27 07:05:22;;;;;;;22.43;11.47;;;9.70;79.20;;;;;;5076108;28;20032;-80
2022/03/27 07:07:48;;;;;;;18.13;10.37;;;9.70;79.00;;;;;;5057732;28;20568;-80
2022/03/27 07:10:15;;;;;;;19.37;10.37;;;9.70;79.70;;;;;;5057797;28;20032;-80
2022/03/27 07:12:42;;;;;;;19.10;10.87;;;9.70;79.10;;;;;;5057655;28;20116;-80
2022/03/27 07:15:09;;;;;;;17.37;9.80;;;9.70;79.10;;;;;;5075476;28;20044;-80
2022/03/27 07:17:46;;;;;;;19.30;10.67;;;9.70;79.10;;;;;;5075335;28;20043;-80
2022/03/27 07:20:16;;;;;;;20.73;12.30;;;9.70;79.20;;;;;;5075555;28;20025;-80
2022/03/27 07:22:43;;;;;;;20.80;11.03;;;9.70;79.30;;;;;;5075455;28;20069;-81
2022/03/27 07:25:09;;;;;;;19.63;11.67;;;9.80;79.30;;;;;;5057663;28;20095;-80
2022/03/27 07:27:36;;;;;;;17.63;10.80;;;9.90;79.20;;;;;;5057479;28;20384;-80
2022/03/27 07:30:01;;;;;;;18.93;10.47;;;10.00;79.60;;;;;;5075361;28;20035;-80
2022/03/27 07:32:27;;;;;;;17.87;9.57;;;10.00;78.70;;;;;;5040683;28;20029;-80
2022/03/27 07:34:52;;;;;;;17.40;9.43;;;10.00;78.40;;;;;;5057403;28;20029;-79
2022/03/27 07:37:18;;;;;;;19.93;10.40;;;10.10;78.20;;;;;;5057133;28;20082;-80
2022/03/27 07:39:44;;;;;;;19.43;10.80;;;10.10;78.10;;;;;;5057070;28;20028;-79
2022/03/27 07:42:10;;;;;;;18.57;10.17;;;10.00;78.00;;;;;;5040120;28;20040;-79
2022/03/27 07:44:35;;;;;;;19.03;10.00;;;9.90;78.00;;;;;;5057038;28;20033;-79
2022/03/27 07:47:01;;;;;;;18.63;9.63;;;9.90;78.20;;;;;;5057241;28;20028;-79
2022/03/27 07:49:27;;;;;;;17.07;10.00;;;9.90;78.30;;;;;;5056969;28;20088;-79
2022/03/27 07:51:56;;;;;;;20.23;10.17;;;9.90;78.20;;;;;;5040305;28;20034;-80
2022/03/27 07:54:22;;;;;;;17.97;10.47;;;9.90;78.00;;;;;;5074798;28;20036;-73
2022/03/27 07:56:47;;;;;;;20.13;10.77;;;10.00;77.90;;;;;;5040574;28;20028;-75
2022/03/27 07:59:13;;;;;;;18.77;9.77;;;10.00;77.70;;;;;;5040347;28;20473;-75
2022/03/27 08:01:39;;;;;;;18.73;10.47;;;10.00;77.60;;;;;;5074707;28;20056;-73
2022/03/27 08:04:05;;;;;;;18.20;10.30;;;9.90;77.40;;;;;;5056749;28;20384;-79
2022/03/27 08:06:36;;;;;;;18.27;11.07;;;10.00;78.10;;;;;;5056607;28;20389;-79
2022/03/27 08:09:05;;;;;;;20.00;11.20;;;10.00;77.50;;;;;;5074204;28;20060;-79
2022/03/27 08:11:32;;;;;;;19.63;10.27;;;9.90;77.40;;;;;;5056908;28;20032;-78
2022/03/27 08:13:58;;;;;;;19.57;11.53;;;10.00;77.50;;;;;;5040067;28;20025;-79
2022/03/27 08:16:26;;;;;;;18.53;10.53;;;10.00;77.50;;;;;;5056478;28;20503;-79
2022/03/27 08:18:51;;;;;;;18.03;10.70;;;10.10;77.40;;;;;;5056380;28;20025;-79
2022/03/27 08:21:17;;;;;;;19.23;10.17;;;10.10;77.10;;;;;;5056608;28;20028;-78
2022/03/27 08:23:43;;;;;;;18.53;10.30;;;10.10;77.00;;;;;;5039115;28;20119;-78
2022/03/27 08:28:52;;;;;;;17.75;10.32;;;10.20;76.90;;;;;;5059320;28;20117;-78
2022/03/27 08:31:18;;;;;;;18.80;10.90;;;10.20;76.70;;;;;;5039415;28;20480;-78
2022/03/27 08:33:44;;;;;;;19.53;11.17;;;10.20;76.70;;;;;;5056154;28;20443;-77
2022/03/27 08:36:10;;;;;;;18.73;11.13;;;10.30;76.80;;;;;;5039490;28;20048;-78
2022/03/27 08:38:35;;;;;;;21.47;10.80;;;10.40;76.80;;;;;;5074178;28;20060;-78
2022/03/27 08:41:02;;;;;;;20.00;11.77;;;10.40;76.70;;;;;;5052756;28;20098;-79
2022/03/27 08:43:32;;;;;;;18.20;10.00;;;10.40;76.60;;;;;;5052608;28;20029;-79
2022/03/27 08:45:58;;;;;;;19.33;11.30;;;10.50;76.50;;;;;;5052505;28;20021;-78
2022/03/27 08:48:29;;;;;;;20.83;11.40;;;10.60;76.30;;;;;;5053727;28;20025;-78
2022/03/27 08:51:20;;;;;;;18.40;10.90;;;10.50;76.20;;;;;;5053742;28;20025;-78
2022/03/27 08:54:03;;;;;;;19.60;11.07;;;10.60;76.10;;;;;;5053520;28;20024;-74
2022/03/27 08:56:30;;;;;;;17.27;9.40;;;10.70;75.90;;;;;;5054043;28;20028;-73
2022/03/27 08:59:01;;;;;;;17.43;10.57;;;10.80;75.50;;;;;;5052620;28;20040;-78
2022/03/27 09:01:28;;;;;;;16.70;10.13;;;10.90;75.20;;;;;;5052624;28;20021;-78
2022/03/27 09:03:53;;;;;;;18.10;10.37;;;10.90;75.00;;;;;;5052446;28;20021;-78
2022/03/27 09:06:21;;;;;;;18.80;11.00;;;11.00;74.80;;;;;;5052530;28;20477;-78
2022/03/27 09:08:51;;;;;;;20.33;10.77;;;11.00;74.60;;;;;;5035913;28;20086;-78
2022/03/27 09:11:18;;;;;;;18.27;12.00;;;11.10;74.40;;;;;;5053407;28;20427;-78
2022/03/27 09:13:48;;;;;;;17.45;10.30;;;11.10;74.30;;;;;;5052681;28;20056;-78
2022/03/27 09:16:13;;;;;;;18.73;11.23;;;11.20;74.20;;;;;;5054391;28;20029;-74
2022/03/27 09:18:42;;;;;;;16.65;10.30;;;11.20;74.00;;;;;;5051819;28;20468;-74
2022/03/27 09:21:08;;;;;;;23.67;11.25;;;11.30;74.00;;;;;;5052487;28;20029;-73
2022/03/27 09:23:35;;;;;;;19.65;11.75;;;11.40;74.00;;;;;;5019017;28;20075;-74
2022/03/27 09:26:05;;;;;;;20.05;11.15;;;11.50;73.80;;;;;;5052386;28;20017;-73
2022/03/27 09:28:35;;;;;;;19.40;10.70;;;11.50;73.40;;;;;;5051901;28;20025;-78
2022/03/27 09:31:04;;;;;;;16.48;9.82;;;11.50;73.40;;;;;;5052290;28;20056;-78
2022/03/27 09:33:33;;;;;;;15.18;9.50;;;11.60;73.20;;;;;;5053337;28;20053;-74
2022/03/27 09:36:10;;;;;;;18.10;10.98;;;11.70;72.80;;;;;;5051819;28;20108;-73
2022/03/27 09:38:37;;;;;;;16.02;9.63;;;11.80;72.20;;;;;;5051573;28;20029;-74
2022/03/27 09:41:03;;;;;;;16.85;10.07;;;11.90;71.80;;;;;;5060821;28;20048;-74
2022/03/27 09:43:29;;;;;;;18.23;10.27;;;11.90;71.60;;;;;;5039230;28;20471;-79
2022/03/27 09:45:57;;;;;;;17.75;9.63;;;12.00;71.50;;;;;;5055186;28;20115;-79
2022/03/27 09:48:23;;;;;;;15.63;8.90;;;12.00;71.10;;;;;;5073408;28;20025;-78
2022/03/27 09:50:51;;;;;;;16.83;9.40;;;12.10;70.70;;;;;;5073304;28;20472;-79
2022/03/27 09:53:19;;;;;;;15.60;9.32;;;12.20;70.10;;;;;;5073660;28;20020;-78
2022/03/27 09:55:45;;;;;;;16.02;8.27;;;12.20;69.70;;;;;;5073111;28;20027;-75
2022/03/27 09:58:12;;;;;;;16.08;9.50;;;12.30;69.70;;;;;;5055264;28;20033;-73
2022/03/27 10:00:38;;;;;;;13.13;8.02;;;12.30;69.90;;;;;;5055556;28;20036;-73
2022/03/27 10:03:10;;;;;;;15.05;8.38;;;12.40;69.00;;;;;;5073992;28;20044;-74
2022/03/27 10:05:36;;;;;;;14.90;8.35;;;12.50;68.50;;;;;;5055321;28;20384;-73
2022/03/27 10:08:03;;;;;;;15.35;9.35;;;12.60;68.30;;;;;;5058944;28;20032;-74
2022/03/27 10:10:29;;;;;;;15.32;9.18;;;12.70;67.90;;;;;;5059460;28;20366;-78
2022/03/27 10:12:59;;;;;;;14.52;7.50;;;12.90;67.70;;;;;;5059263;28;20082;-74
2022/03/27 10:15:28;;;;;;;13.20;8.73;;;13.10;67.60;;;;;;5059114;28;20464;-79
2022/03/27 10:17:55;;;;;;;17.48;9.90;;;13.30;67.50;;;;;;5058877;28;20078;-78
2022/03/27 10:20:22;;;;;;;14.70;9.25;;;13.50;67.10;;;;;;5059215;28;20052;-78
2022/03/27 10:22:50;;;;;;;13.43;8.68;;;13.80;66.80;;;;;;5059223;28;20376;-79
2022/03/27 10:25:17;;;;;;;13.60;8.70;;;14.10;66.00;;;;;;5059504;28;20050;-79
2022/03/27 10:27:45;;;;;;;14.98;8.40;;;14.30;65.30;;;;;;5076701;28;20512;-78
2022/03/27 10:30:13;;;;;;;14.98;9.15;;;14.50;64.80;;;;;;5058272;28;20029;-78
2022/03/27 10:32:40;;;;;;;14.88;8.80;;;14.80;64.50;;;;;;5076175;28;20025;-79
2022/03/27 10:35:18;;;;;;;11.88;8.07;;;15.00;64.10;;;;;;5058589;28;20115;-79
2022/03/27 10:37:53;;;;;;;13.77;8.02;;;15.20;63.40;;;;;;5076670;28;20108;-73
2022/03/27 10:40:29;;;;;;;14.15;8.13;;;15.50;62.80;;;;;;5075954;28;20114;-73
2022/03/27 10:43:11;;;;;;;12.57;7.22;;;15.80;62.10;;;;;;5058173;28;20013;-74
2022/03/27 10:45:37;;;;;;;12.43;7.40;;;16.00;61.10;;;;;;5076258;28;20017;-74
2022/03/27 10:48:15;;;;;;;12.00;7.07;;;16.30;60.80;;;;;;5041568;28;20021;-74
2022/03/27 10:50:48;;;;;;;12.52;7.82;;;16.50;59.90;;;;;;5076241;28;20024;-74
2022/03/27 10:53:15;;;;;;;11.75;7.22;;;16.80;59.70;;;;;;5076447;28;20032;-74
2022/03/27 10:55:46;;;;;;;11.25;6.28;;;17.00;59.30;;;;;;5076915;28;20024;-74
2022/03/27 10:58:40;;;;;;;13.13;7.70;;;17.20;58.50;;;;;;5075933;28;20029;-74
2022/03/27 11:01:09;;;;;;;9.90;6.10;;;17.50;57.40;;;;;;5058546;28;20019;-74
2022/03/27 11:03:46;;;;;;;14.57;6.65;;;17.70;57.40;;;;;;5058519;28;20059;-79
2022/03/27 11:06:28;;;;;;;10.52;6.43;;;18.00;56.50;;;;;;5076783;28;20032;-79
2022/03/27 11:08:56;;;;;;;12.63;6.50;;;18.30;55.50;;;;;;5057803;28;20112;-78
2022/03/27 11:11:36;;;;;;;11.23;5.80;;;18.60;55.10;;;;;;5075754;28;20033;-78
2022/03/27 11:14:09;;;;;;;11.50;6.50;;;18.90;54.00;;;;;;5075617;28;20431;-78
2022/03/27 11:17:06;;;;;;;12.50;6.82;;;19.10;53.50;;;;;;5075439;28;20029;-79
2022/03/27 11:19:42;;;;;;;10.13;5.30;;;19.40;52.30;;;;;;5075451;28;20064;-79
2022/03/27 11:22:50;;;;;;;10.48;6.50;;;19.70;51.90;;;;;;5075668;28;20426;-79
2022/03/27 11:25:35;;;;;;;8.98;5.53;;;19.90;51.00;;;;;;5057451;28;20066;-79
2022/03/27 11:28:07;;;;;;;9.48;5.00;;;20.20;50.50;;;;;;5057399;28;20481;-79
2022/03/27 11:30:40;;;;;;;10.48;5.50;;;20.40;50.30;;;;;;5076943;28;20032;-74
2022/03/27 11:33:27;;;;;;;10.35;5.28;;;20.70;49.40;;;;;;5057649;28;20043;-74
2022/03/27 11:36:01;;;;;;;10.10;5.60;;;21.00;48.70;;;;;;5075531;28;20172;-79
2022/03/27 11:38:31;;;;;;;8.80;5.03;;;21.20;48.70;;;;;;5075236;28;20062;-79
2022/03/27 11:41:17;;;;;;;9.40;5.18;;;21.30;48.20;;;;;;5056629;28;20060;-75
2022/03/27 11:43:43;;;;;;;9.52;5.63;;;21.60;47.50;;;;;;5057027;28;20032;-79
2022/03/27 11:46:19;;;;;;;8.90;4.53;;;21.80;47.10;;;;;;5057134;28;20039;-79
2022/03/27 11:48:59;;;;;;;9.98;5.28;;;22.00;46.70;;;;;;5075059;28;20027;-80
2022/03/27 11:51:25;;;;;;;9.63;5.63;;;22.30;45.90;;;;;;5075160;28;20491;-75
2022/03/27 11:53:57;;;;;;;8.57;4.10;;;22.60;45.70;;;;;;5074608;28;20031;-75
2022/03/27 11:56:24;;;;;;;9.15;5.10;;;22.80;45.20;;;;;;5057195;28;20032;-79
2022/03/27 11:59:09;;;;;;;8.57;4.75;;;23.00;44.80;;;;;;5057091;28;20481;-79
2022/03/27 12:01:36;;;;;;;7.65;3.80;;;23.20;43.50;;;;;;5040712;28;20036;-75
2022/03/27 12:04:06;;;;;;;9.50;4.13;;;23.50;43.70;;;;;;5056956;28;20047;-75
2022/03/27 12:06:32;;;;;;;8.85;4.10;;;23.70;42.80;;;;;;5056862;28;20033;-75
2022/03/27 12:08:58;;;;;;;6.85;3.47;;;23.90;42.50;;;;;;5040237;28;20503;-75
2022/03/27 12:11:26;;;;;;;7.55;3.22;;;24.20;41.80;;;;;;5056690;28;20028;-75
2022/03/27 12:13:53;;;;;;;6.68;3.85;;;24.30;41.20;;;;;;5074718;28;20020;-75
2022/03/27 12:16:24;;;;;;;7.68;4.10;;;24.50;40.80;;;;;;5056979;28;20463;-75
2022/03/27 12:18:51;;;;;;;6.35;3.15;;;24.70;40.20;;;;;;5039966;28;20021;-75
2022/03/27 12:21:20;;;;;;;5.78;3.63;;;24.90;39.80;;;;;;5056222;28;20443;-75
2022/03/27 12:23:50;;;;;;;6.18;3.28;;;25.00;39.50;;;;;;5074680;28;20070;-77
2022/03/27 12:31:56;;;;;;;7.07;3.45;;;25.60;38.80;;;;;;5074208;28;20040;-79
2022/03/27 12:34:23;;;;;;;6.82;2.80;;;25.80;38.70;;;;;;5074056;28;20036;-80
2022/03/27 12:37:14;;;;;;;6.78;3.40;;;25.90;38.40;;;;;;5056129;28;20020;-80
2022/03/27 12:39:58;;;;;;;6.25;3.67;;;26.10;37.40;;;;;;5055943;28;20067;-80
2022/03/27 12:42:33;;;;;;;6.18;3.22;;;26.30;38.30;;;;;;5055876;28;20033;-80
2022/03/27 12:45:12;;;;;;;8.68;3.58;;;26.50;37.20;;;;;;5055949;28;20031;-79
2022/03/27 12:47:40;;;;;;;5.63;2.65;;;26.70;36.80;;;;;;5073774;28;20108;-79
2022/03/27 12:50:08;;;;;;;6.57;3.35;;;26.90;36.80;;;;;;5056133;28;20123;-79
2022/03/27 12:52:34;;;;;;;5.65;2.88;;;27.10;36.30;;;;;;5056321;28;20032;-79
2022/03/27 12:55:04;;;;;;;6.03;3.10;;;27.30;36.00;;;;;;5056200;28;20029;-75